Terminal Aerodrome Forecast
Issued by NWS Blacksburg, VA

Current Version | Previous Version | Graphics & Text | Print | Product List | Glossary On
Versions: 1 2 3 4 5 6 7 8 9 10 11 12 13 14 15 16 17 18 19 20 21 22 23 24 25 26 27 28 29 30 31 32 33 34 35 36 37 38 39 40 41 42
000
FTUS41 KRNK 010029 AAA
TAFBLF
TAF AMD
KBLF 010029Z 0100/0124 15003KT 4SM BR VCSH FEW035 OVC090
      TEMPO 0101/0103 1SM BR
     FM010700 00000KT 6SM -RA BR SCT020 OVC050
     FM011000 15003KT 5SM -RA BR FEW015 OVC025=

USA.gov is the U.S. government's official web portal to all federal, state and local government web resources and services.